sensor_id;sensor_type;location;lat;lon;timestamp;pressure;altitude;pressure_sealevel;temperature;humidity
61484;BME280;47349;55.640;37.692;2024-01-07T00:05:00;99390.03;;;-18.86;93.58
61484;BME280;47349;55.640;37.692;2024-01-07T00:07:30;99391.75;;;-18.87;94.51
61484;BME280;47349;55.640;37.692;2024-01-07T00:09:57;99396.84;;;-18.84;94.67
61484;BME280;47349;55.640;37.692;2024-01-07T00:12:25;99381.53;;;-18.87;95.69
61484;BME280;47349;55.640;37.692;2024-01-07T00:25:28;99430.06;;;-19.04;95.80
61484;BME280;47349;55.640;37.692;2024-01-07T00:57:11;99449.56;;;-19.56;95.80
61484;BME280;47349;55.640;37.692;2024-01-07T00:59:46;99448.72;;;-19.64;95.87
61484;BME280;47349;55.640;37.692;2024-01-07T01:02:17;99458.94;;;-19.64;95.05
61484;BME280;47349;55.640;37.692;2024-01-07T01:05:12;99467.44;;;-19.56;95.48
61484;BME280;47349;55.640;37.692;2024-01-07T01:07:41;99476.78;;;-19.69;95.19
61484;BME280;47349;55.640;37.692;2024-01-07T01:10:09;99484.44;;;-19.70;94.96
61484;BME280;47349;55.640;37.692;2024-01-07T01:12:37;99487.84;;;-19.65;94.70
61484;BME280;47349;55.640;37.692;2024-01-07T02:06:07;99580.31;;;-20.06;93.20
61484;BME280;47349;55.640;37.692;2024-01-07T02:08:40;99583.69;;;-20.10;93.27
61484;BME280;47349;55.640;37.692;2024-01-07T02:11:16;99588.00;;;-19.97;93.57
61484;BME280;47349;55.640;37.692;2024-01-07T02:17:06;99600.81;;;-19.89;95.11
61484;BME280;47349;55.640;37.692;2024-01-07T03:10:00;99627.69;;;-21.22;90.77
61484;BME280;47349;55.640;37.692;2024-01-07T03:12:30;99646.28;;;-21.30;90.42
61484;BME280;47349;55.640;37.692;2024-01-07T03:14:59;99658.03;;;-21.41;90.42
61484;BME280;47349;55.640;37.692;2024-01-07T03:20:31;99692.94;;;-21.31;89.88
61484;BME280;47349;55.640;37.692;2024-01-07T03:23:00;99686.91;;;-21.37;90.15
61484;BME280;47349;55.640;37.692;2024-01-07T04:05:53;99734.34;;;-21.97;91.73
61484;BME280;47349;55.640;37.692;2024-01-07T04:48:14;99773.03;;;-22.15;90.43
61484;BME280;47349;55.640;37.692;2024-01-07T05:52:00;99874.19;;;-22.81;92.53
61484;BME280;47349;55.640;37.692;2024-01-07T05:54:30;99900.31;;;-22.85;92.32
61484;BME280;47349;55.640;37.692;2024-01-07T05:57:02;99891.03;;;-22.83;92.79
61484;BME280;47349;55.640;37.692;2024-01-07T05:59:31;99899.31;;;-22.94;92.82
61484;BME280;47349;55.640;37.692;2024-01-07T06:02:19;99890.97;;;-22.87;92.66
61484;BME280;47349;55.640;37.692;2024-01-07T06:04:59;99923.16;;;-22.85;92.44
61484;BME280;47349;55.640;37.692;2024-01-07T06:07:37;99919.78;;;-22.84;92.29
61484;BME280;47349;55.640;37.692;2024-01-07T06:12:57;99928.34;;;-22.79;91.31
61484;BME280;47349;55.640;37.692;2024-01-07T06:15:40;99924.94;;;-22.81;91.92
61484;BME280;47349;55.640;37.692;2024-01-07T06:18:08;99937.81;;;-22.72;91.38
61484;BME280;47349;55.640;37.692;2024-01-07T06:20:38;99930.97;;;-22.76;92.27
61484;BME280;47349;55.640;37.692;2024-01-07T06:23:15;99921.78;;;-22.71;91.47
61484;BME280;47349;55.640;37.692;2024-01-07T06:25:46;99923.63;;;-22.64;91.67
61484;BME280;47349;55.640;37.692;2024-01-07T06:28:15;99952.28;;;-22.70;91.18
61484;BME280;47349;55.640;37.692;2024-01-07T06:30:49;99950.88;;;-22.57;90.72
61484;BME280;47349;55.640;37.692;2024-01-07T06:33:33;99924.59;;;-22.57;90.36
61484;BME280;47349;55.640;37.692;2024-01-07T06:36:10;99943.41;;;-22.49;90.18
61484;BME280;47349;55.640;37.692;2024-01-07T06:38:49;99947.75;;;-22.44;91.71
61484;BME280;47349;55.640;37.692;2024-01-07T06:41:34;99967.53;;;-22.30;91.68
61484;BME280;47349;55.640;37.692;2024-01-07T06:44:07;99969.97;;;-22.33;91.42
61484;BME280;47349;55.640;37.692;2024-01-07T06:46:37;99972.53;;;-22.33;91.63
61484;BME280;47349;55.640;37.692;2024-01-07T06:49:10;99954.72;;;-22.35;92.41
61484;BME280;47349;55.640;37.692;2024-01-07T06:51:42;99975.34;;;-22.21;91.71
61484;BME280;47349;55.640;37.692;2024-01-07T06:54:12;99991.53;;;-22.16;91.16
61484;BME280;47349;55.640;37.692;2024-01-07T06:56:43;99980.50;;;-22.18;89.64
61484;BME280;47349;55.640;37.692;2024-01-07T06:59:23;99976.41;;;-22.12;90.95
61484;BME280;47349;55.640;37.692;2024-01-07T07:02:05;99980.53;;;-22.15;90.17
61484;BME280;47349;55.640;37.692;2024-01-07T07:04:36;99966.97;;;-22.17;90.70
61484;BME280;47349;55.640;37.692;2024-01-07T07:07:08;100025.59;;;-22.06;90.86
61484;BME280;47349;55.640;37.692;2024-01-07T07:09:35;100011.03;;;-22.15;90.66
61484;BME280;47349;55.640;37.692;2024-01-07T07:12:08;100003.28;;;-22.23;90.03
61484;BME280;47349;55.640;37.692;2024-01-07T07:14:39;99992.25;;;-22.23;89.21
61484;BME280;47349;55.640;37.692;2024-01-07T07:17:17;100000.88;;;-22.15;89.12
61484;BME280;47349;55.640;37.692;2024-01-07T07:19:50;100003.56;;;-22.08;89.60
61484;BME280;47349;55.640;37.692;2024-01-07T07:22:25;100000.16;;;-22.08;89.66
61484;BME280;47349;55.640;37.692;2024-01-07T07:24:52;100019.84;;;-21.98;89.54
61484;BME280;47349;55.640;37.692;2024-01-07T07:27:21;100040.25;;;-21.95;88.95
61484;BME280;47349;55.640;37.692;2024-01-07T07:30:05;100035.31;;;-21.89;89.04
61484;BME280;47349;55.640;37.692;2024-01-07T07:32:42;100035.72;;;-21.67;90.55
61484;BME280;47349;55.640;37.692;2024-01-07T07:35:10;100043.34;;;-21.67;89.37
61484;BME280;47349;55.640;37.692;2024-01-07T07:37:37;100021.41;;;-21.64;89.12
61484;BME280;47349;55.640;37.692;2024-01-07T07:40:14;100024.16;;;-21.53;88.40
61484;BME280;47349;55.640;37.692;2024-01-07T07:42:42;100058.06;;;-21.54;87.48
61484;BME280;47349;55.640;37.692;2024-01-07T07:45:25;100004.44;;;-21.63;86.02
61484;BME280;47349;55.640;37.692;2024-01-07T07:47:53;100042.59;;;-21.63;86.02
61484;BME280;47349;55.640;37.692;2024-01-07T07:50:24;100003.63;;;-21.62;85.83
61484;BME280;47349;55.640;37.692;2024-01-07T07:52:52;100004.38;;;-21.68;85.56
61484;BME280;47349;55.640;37.692;2024-01-07T07:55:20;100031.78;;;-21.53;86.06
61484;BME280;47349;55.640;37.692;2024-01-07T07:57:55;100040.25;;;-21.52;84.70
61484;BME280;47349;55.640;37.692;2024-01-07T08:00:23;100071.72;;;-21.49;85.32
61484;BME280;47349;55.640;37.692;2024-01-07T08:02:54;100040.34;;;-21.49;84.97
61484;BME280;47349;55.640;37.692;2024-01-07T08:05:26;100056.81;;;-21.27;83.72
61484;BME280;47349;55.640;37.692;2024-01-07T08:07:55;100062.56;;;-21.39;82.41
61484;BME280;47349;55.640;37.692;2024-01-07T08:10:27;100056.81;;;-21.27;82.35
61484;BME280;47349;55.640;37.692;2024-01-07T08:13:04;100058.56;;;-21.26;82.86
61484;BME280;47349;55.640;37.692;2024-01-07T08:15:33;100068.88;;;-21.17;83.59
61484;BME280;47349;55.640;37.692;2024-01-07T08:18:06;100090.91;;;-21.19;84.17
61484;BME280;47349;55.640;37.692;2024-01-07T08:20:36;100085.13;;;-21.12;83.42
61484;BME280;47349;55.640;37.692;2024-01-07T08:23:08;100069.19;;;-21.02;84.26
61484;BME280;47349;55.640;37.692;2024-01-07T08:25:38;100114.34;;;-20.92;83.84
61484;BME280;47349;55.640;37.692;2024-01-07T08:28:07;100094.88;;;-20.90;84.62
61484;BME280;47349;55.640;37.692;2024-01-07T08:30:47;100101.50;;;-20.98;83.95
61484;BME280;47349;55.640;37.692;2024-01-07T08:33:16;100103.97;;;-21.02;83.76
61484;BME280;47349;55.640;37.692;2024-01-07T08:35:45;100103.19;;;-20.98;86.04
61484;BME280;47349;55.640;37.692;2024-01-07T08:38:16;100081.13;;;-20.98;85.49
61484;BME280;47349;55.640;37.692;2024-01-07T08:40:43;100081.16;;;-20.96;84.73
61484;BME280;47349;55.640;37.692;2024-01-07T08:43:12;100086.19;;;-21.01;85.22
61484;BME280;47349;55.640;37.692;2024-01-07T08:45:39;100092.47;;;-20.81;85.88
61484;BME280;47349;55.640;37.692;2024-01-07T08:48:07;100101.84;;;-20.80;84.81
61484;BME280;47349;55.640;37.692;2024-01-07T08:50:38;100112.41;;;-20.58;84.31
61484;BME280;47349;55.640;37.692;2024-01-07T08:53:08;100113.44;;;-20.48;85.13
61484;BME280;47349;55.640;37.692;2024-01-07T08:55:36;100131.34;;;-20.41;83.11
61484;BME280;47349;55.640;37.692;2024-01-07T08:58:07;100127.94;;;-20.41;82.70
61484;BME280;47349;55.640;37.692;2024-01-07T09:00:37;100103.34;;;-20.39;82.49
61484;BME280;47349;55.640;37.692;2024-01-07T09:03:10;100128.22;;;-20.24;82.81
61484;BME280;47349;55.640;37.692;2024-01-07T09:05:41;100103.56;;;-20.26;83.53
61484;BME280;47349;55.640;37.692;2024-01-07T09:08:12;100140.91;;;-20.28;82.71
61484;BME280;47349;55.640;37.692;2024-01-07T09:10:42;100124.00;;;-20.22;83.31
61484;BME280;47349;55.640;37.692;2024-01-07T09:13:10;100124.84;;;-20.22;81.79
61484;BME280;47349;55.640;37.692;2024-01-07T09:15:38;100134.94;;;-20.30;81.11
61484;BME280;47349;55.640;37.692;2024-01-07T09:18:09;100115.97;;;-20.45;81.35
61484;BME280;47349;55.640;37.692;2024-01-07T09:20:37;100114.50;;;-20.33;81.09
61484;BME280;47349;55.640;37.692;2024-01-07T09:23:05;100136.59;;;-20.32;80.77
61484;BME280;47349;55.640;37.692;2024-01-07T09:25:33;100121.41;;;-20.26;81.07
61484;BME280;47349;55.640;37.692;2024-01-07T09:28:00;100104.53;;;-20.17;81.06
61484;BME280;47349;55.640;37.692;2024-01-07T09:30:28;100136.16;;;-20.06;82.53
61484;BME280;47349;55.640;37.692;2024-01-07T09:33:06;100120.00;;;-20.07;80.56
61484;BME280;47349;55.640;37.692;2024-01-07T09:35:36;100122.53;;;-20.10;80.69
61484;BME280;47349;55.640;37.692;2024-01-07T09:38:17;100124.22;;;-20.09;79.16
61484;BME280;47349;55.640;37.692;2024-01-07T09:40:53;100114.25;;;-19.95;79.61
61484;BME280;47349;55.640;37.692;2024-01-07T09:43:31;100117.72;;;-19.88;79.10
61484;BME280;47349;55.640;37.692;2024-01-07T09:46:03;100098.03;;;-19.97;78.47
61484;BME280;47349;55.640;37.692;2024-01-07T09:48:36;100138.06;;;-19.94;78.43
61484;BME280;47349;55.640;37.692;2024-01-07T09:51:07;100127.06;;;-19.90;78.31
61484;BME280;47349;55.640;37.692;2024-01-07T09:53:47;100123.53;;;-19.97;77.66
61484;BME280;47349;55.640;37.692;2024-01-07T09:56:29;100135.50;;;-19.96;78.64
61484;BME280;47349;55.640;37.692;2024-01-07T09:59:06;100152.66;;;-19.83;78.34
61484;BME280;47349;55.640;37.692;2024-01-07T10:01:42;100144.41;;;-19.66;77.35
61484;BME280;47349;55.640;37.692;2024-01-07T10:04:12;100136.75;;;-19.66;77.86
61484;BME280;47349;55.640;37.692;2024-01-07T10:06:40;100123.25;;;-19.56;77.60
61484;BME280;47349;55.640;37.692;2024-01-07T10:09:12;100128.50;;;-19.44;77.75
61484;BME280;47349;55.640;37.692;2024-01-07T10:11:45;100147.09;;;-19.54;77.10
61484;BME280;47349;55.640;37.692;2024-01-07T10:14:13;100161.66;;;-19.47;77.39
61484;BME280;47349;55.640;37.692;2024-01-07T10:16:43;100163.19;;;-19.58;77.50
61484;BME280;47349;55.640;37.692;2024-01-07T10:19:29;100165.94;;;-19.44;77.05
61484;BME280;47349;55.640;37.692;2024-01-07T10:22:05;100153.16;;;-19.46;76.04
61484;BME280;47349;55.640;37.692;2024-01-07T10:24:37;100158.53;;;-19.25;76.44
61484;BME280;47349;55.640;37.692;2024-01-07T10:27:07;100155.06;;;-19.33;76.03
61484;BME280;47349;55.640;37.692;2024-01-07T10:29:46;100170.38;;;-19.33;76.29
61484;BME280;47349;55.640;37.692;2024-01-07T10:32:23;100137.81;;;-19.49;76.00
61484;BME280;47349;55.640;37.692;2024-01-07T10:35:12;100150.25;;;-19.74;76.90
61484;BME280;47349;55.640;37.692;2024-01-07T10:37:44;100153.78;;;-19.64;77.89
61484;BME280;47349;55.640;37.692;2024-01-07T10:40:19;100169.19;;;-19.56;78.11
61484;BME280;47349;55.640;37.692;2024-01-07T10:42:56;100172.56;;;-19.59;77.86
61484;BME280;47349;55.640;37.692;2024-01-07T10:45:34;100161.53;;;-19.56;77.39
61484;BME280;47349;55.640;37.692;2024-01-07T10:48:06;100156.47;;;-19.53;76.35
61484;BME280;47349;55.640;37.692;2024-01-07T10:50:35;100161.63;;;-19.50;76.66
61484;BME280;47349;55.640;37.692;2024-01-07T10:53:06;100187.31;;;-19.38;77.05
61484;BME280;47349;55.640;37.692;2024-01-07T10:55:41;100158.34;;;-19.40;77.19
61484;BME280;47349;55.640;37.692;2024-01-07T10:58:18;100168.41;;;-19.52;76.58
61484;BME280;47349;55.640;37.692;2024-01-07T11:00:55;100159.06;;;-19.52;76.37
61484;BME280;47349;55.640;37.692;2024-01-07T11:03:54;100178.63;;;-19.49;76.23
61484;BME280;47349;55.640;37.692;2024-01-07T11:11:49;100156.63;;;-19.41;75.97
61484;BME280;47349;55.640;37.692;2024-01-07T11:14:40;100150.06;;;-19.24;76.10
61484;BME280;47349;55.640;37.692;2024-01-07T11:17:11;100150.94;;;-19.22;76.03
61484;BME280;47349;55.640;37.692;2024-01-07T11:19:53;100150.88;;;-19.28;75.17
61484;BME280;47349;55.640;37.692;2024-01-07T11:22:38;100153.22;;;-19.43;75.99
61484;BME280;47349;55.640;37.692;2024-01-07T11:25:33;100171.81;;;-19.50;77.48
61484;BME280;47349;55.640;37.692;2024-01-07T11:28:08;100170.19;;;-19.47;77.97
61484;BME280;47349;55.640;37.692;2024-01-07T11:30:39;100180.53;;;-19.34;76.90
61484;BME280;47349;55.640;37.692;2024-01-07T11:33:20;100173.66;;;-19.41;77.52
61484;BME280;47349;55.640;37.692;2024-01-07T11:36:05;100194.09;;;-19.40;78.46
61484;BME280;47349;55.640;37.692;2024-01-07T11:38:34;100166.97;;;-19.32;77.87
61484;BME280;47349;55.640;37.692;2024-01-07T11:41:11;100201.72;;;-19.43;77.98
61484;BME280;47349;55.640;37.692;2024-01-07T11:43:57;100184.50;;;-19.58;78.15
61484;BME280;47349;55.640;37.692;2024-01-07T11:46:34;100168.47;;;-19.46;77.78
61484;BME280;47349;55.640;37.692;2024-01-07T11:49:03;100183.78;;;-19.48;77.71
61484;BME280;47349;55.640;37.692;2024-01-07T11:51:36;100183.63;;;-19.61;77.93
61484;BME280;47349;55.640;37.692;2024-01-07T11:54:05;100187.88;;;-19.62;78.85
61484;BME280;47349;55.640;37.692;2024-01-07T11:56:32;100187.06;;;-19.58;78.50
61484;BME280;47349;55.640;37.692;2024-01-07T11:59:00;100192.25;;;-19.50;78.62
61484;BME280;47349;55.640;37.692;2024-01-07T12:01:28;100188.91;;;-19.44;79.53
61484;BME280;47349;55.640;37.692;2024-01-07T12:04:02;100177.13;;;-19.38;78.96
61484;BME280;47349;55.640;37.692;2024-01-07T12:06:32;100200.16;;;-19.33;79.25
61484;BME280;47349;55.640;37.692;2024-01-07T12:09:03;100192.50;;;-19.32;78.89
61484;BME280;47349;55.640;37.692;2024-01-07T12:11:42;100196.63;;;-19.43;79.61
61484;BME280;47349;55.640;37.692;2024-01-07T12:14:16;100189.13;;;-19.29;79.25
61484;BME280;47349;55.640;37.692;2024-01-07T12:16:47;100211.31;;;-19.27;80.10
61484;BME280;47349;55.640;37.692;2024-01-07T12:19:16;100199.28;;;-19.34;80.72
61484;BME280;47349;55.640;37.692;2024-01-07T12:21:44;100210.53;;;-19.21;80.33
61484;BME280;47349;55.640;37.692;2024-01-07T12:24:26;100202.97;;;-19.13;80.90
61484;BME280;47349;55.640;37.692;2024-01-07T12:26:54;100178.94;;;-17.48;77.10
61484;BME280;47349;55.640;37.692;2024-01-07T12:29:38;100177.66;;;-16.39;72.24
61484;BME280;47349;55.640;37.692;2024-01-07T12:32:16;100200.69;;;-16.67;70.32
61484;BME280;47349;55.640;37.692;2024-01-07T12:34:44;100189.59;;;-16.56;69.43
61484;BME280;47349;55.640;37.692;2024-01-07T12:37:18;100185.94;;;-17.18;70.38
61484;BME280;47349;55.640;37.692;2024-01-07T12:39:51;100207.34;;;-17.08;71.65
61484;BME280;47349;55.640;37.692;2024-01-07T12:42:22;100213.53;;;-16.71;71.42
61484;BME280;47349;55.640;37.692;2024-01-07T12:45:16;100195.06;;;-17.61;73.91
61484;BME280;47349;55.640;37.692;2024-01-07T12:47:44;100205.50;;;-17.32;75.45
61484;BME280;47349;55.640;37.692;2024-01-07T12:50:41;100200.31;;;-17.45;73.29
61484;BME280;47349;55.640;37.692;2024-01-07T12:53:13;100215.63;;;-17.51;73.82
61484;BME280;47349;55.640;37.692;2024-01-07T12:55:53;100219.09;;;-18.46;75.70
61484;BME280;47349;55.640;37.692;2024-01-07T12:58:21;100229.63;;;-18.93;78.17
61484;BME280;47349;55.640;37.692;2024-01-07T13:00:50;100226.75;;;-19.16;79.77
61484;BME280;47349;55.640;37.692;2024-01-07T13:03:25;100233.63;;;-19.13;81.22
61484;BME280;47349;55.640;37.692;2024-01-07T13:06:03;100226.63;;;-19.27;81.39
61484;BME280;47349;55.640;37.692;2024-01-07T13:08:41;100216.00;;;-19.54;82.69
61484;BME280;47349;55.640;37.692;2024-01-07T13:11:08;100240.34;;;-19.78;83.50
61484;BME280;47349;55.640;37.692;2024-01-07T13:13:46;100248.75;;;-19.83;84.01
61484;BME280;47349;55.640;37.692;2024-01-07T13:16:18;100216.03;;;-20.09;86.29
61484;BME280;47349;55.640;37.692;2024-01-07T13:19:07;100254.28;;;-20.07;87.68
61484;BME280;47349;55.640;37.692;2024-01-07T13:21:42;100245.75;;;-20.09;88.93
61484;BME280;47349;55.640;37.692;2024-01-07T13:24:13;100229.56;;;-20.11;88.56
61484;BME280;47349;55.640;37.692;2024-01-07T13:26:59;100263.63;;;-20.09;89.64
61484;BME280;47349;55.640;37.692;2024-01-07T13:29:32;100243.22;;;-20.09;88.79
61484;BME280;47349;55.640;37.692;2024-01-07T13:32:01;100239.69;;;-20.16;88.84
61484;BME280;47349;55.640;37.692;2024-01-07T13:34:30;100233.81;;;-20.12;89.61
61484;BME280;47349;55.640;37.692;2024-01-07T13:37:04;100247.28;;;-20.19;89.27
61484;BME280;47349;55.640;37.692;2024-01-07T13:39:38;100242.31;;;-20.11;90.33
61484;BME280;47349;55.640;37.692;2024-01-07T13:42:10;100235.50;;;-20.12;91.07
61484;BME280;47349;55.640;37.692;2024-01-07T13:44:39;100248.28;;;-20.11;91.29
61484;BME280;47349;55.640;37.692;2024-01-07T13:47:16;100269.59;;;-20.07;90.64
61484;BME280;47349;55.640;37.692;2024-01-07T13:49:49;100242.44;;;-20.05;91.81
61484;BME280;47349;55.640;37.692;2024-01-07T13:52:18;100238.97;;;-20.10;92.33
61484;BME280;47349;55.640;37.692;2024-01-07T13:54:47;100250.91;;;-20.06;93.05
61484;BME280;47349;55.640;37.692;2024-01-07T13:57:19;100250.91;;;-20.06;93.21
61484;BME280;47349;55.640;37.692;2024-01-07T13:59:52;100240.75;;;-20.03;93.13
61484;BME280;47349;55.640;37.692;2024-01-07T14:02:26;100248.50;;;-19.98;94.31
61484;BME280;47349;55.640;37.692;2024-01-07T14:04:54;100250.97;;;-20.03;96.80
61484;BME280;47349;55.640;37.692;2024-01-07T14:07:27;100256.13;;;-20.00;97.61
61484;BME280;47349;55.640;37.692;2024-01-07T14:09:57;100290.94;;;-20.02;97.41
61484;BME280;47349;55.640;37.692;2024-01-07T14:12:25;100268.03;;;-19.99;97.39
61484;BME280;47349;55.640;37.692;2024-01-07T14:14:53;100267.94;;;-20.05;97.07
61484;BME280;47349;55.640;37.692;2024-01-07T14:17:21;100266.16;;;-20.09;97.23
61484;BME280;47349;55.640;37.692;2024-01-07T14:19:53;100249.03;;;-20.16;97.75
61484;BME280;47349;55.640;37.692;2024-01-07T14:22:23;100257.50;;;-20.19;96.61
61484;BME280;47349;55.640;37.692;2024-01-07T14:25:00;100244.75;;;-20.19;96.94
61484;BME280;47349;55.640;37.692;2024-01-07T14:27:37;100289.09;;;-20.11;96.23
61484;BME280;47349;55.640;37.692;2024-01-07T14:30:10;100267.81;;;-20.11;96.01
61484;BME280;47349;55.640;37.692;2024-01-07T14:32:46;100295.06;;;-20.09;97.10
61484;BME280;47349;55.640;37.692;2024-01-07T14:35:18;100272.88;;;-20.14;97.45
61484;BME280;47349;55.640;37.692;2024-01-07T14:37:46;100276.41;;;-20.06;98.69
61484;BME280;47349;55.640;37.692;2024-01-07T14:40:13;100301.00;;;-20.10;97.70
61484;BME280;47349;55.640;37.692;2024-01-07T14:42:41;100293.19;;;-20.19;96.80
61484;BME280;47349;55.640;37.692;2024-01-07T14:45:40;100285.63;;;-20.14;95.84
61484;BME280;47349;55.640;37.692;2024-01-07T14:48:09;100277.72;;;-20.28;95.12
61484;BME280;47349;55.640;37.692;2024-01-07T14:50:40;100282.78;;;-20.30;96.55
61484;BME280;47349;55.640;37.692;2024-01-07T14:53:13;100291.44;;;-20.21;97.04
61484;BME280;47349;55.640;37.692;2024-01-07T14:55:43;100279.44;;;-20.26;97.16
61484;BME280;47349;55.640;37.692;2024-01-07T14:58:14;100292.16;;;-20.29;96.64
61484;BME280;47349;55.640;37.692;2024-01-07T15:01:00;100294.69;;;-20.30;96.09
61484;BME280;47349;55.640;37.692;2024-01-07T15:03:34;100286.94;;;-20.35;95.86
61484;BME280;47349;55.640;37.692;2024-01-07T15:06:03;100298.88;;;-20.31;95.32
61484;BME280;47349;55.640;37.692;2024-01-07T15:08:31;100291.13;;;-20.37;95.02
61484;BME280;47349;55.640;37.692;2024-01-07T15:10:58;100306.44;;;-20.37;96.07
61484;BME280;47349;55.640;37.692;2024-01-07T15:13:28;100321.84;;;-20.31;96.83
61484;BME280;47349;55.640;37.692;2024-01-07T15:15:57;100299.63;;;-20.36;96.49
61484;BME280;47349;55.640;37.692;2024-01-07T15:18:27;100311.59;;;-20.34;96.68
61484;BME280;47349;55.640;37.692;2024-01-07T15:20:58;100325.22;;;-20.32;96.34
61484;BME280;47349;55.640;37.692;2024-01-07T15:23:28;100297.84;;;-20.42;96.07
61484;BME280;47349;55.640;37.692;2024-01-07T15:26:01;100318.34;;;-20.36;97.18
61484;BME280;47349;55.640;37.692;2024-01-07T15:28:34;100305.47;;;-20.42;98.88
61484;BME280;47349;55.640;37.692;2024-01-07T15:31:02;100321.81;;;-20.32;99.91
61484;BME280;47349;55.640;37.692;2024-01-07T15:33:35;100317.34;;;-20.44;100.00
61484;BME280;47349;55.640;37.692;2024-01-07T15:36:03;100337.00;;;-20.37;100.00
61484;BME280;47349;55.640;37.692;2024-01-07T15:38:31;100331.03;;;-20.39;100.00
61484;BME280;47349;55.640;37.692;2024-01-07T15:40:58;100291.88;;;-20.44;100.00
61484;BME280;47349;55.640;37.692;2024-01-07T15:43:26;100338.63;;;-20.42;99.46
61484;BME280;47349;55.640;37.692;2024-01-07T15:46:00;100325.00;;;-20.44;99.57
61484;BME280;47349;55.640;37.692;2024-01-07T15:48:39;100339.38;;;-20.46;99.82
61484;BME280;47349;55.640;37.692;2024-01-07T15:51:07;100314.75;;;-20.48;99.13
61484;BME280;47349;55.640;37.692;2024-01-07T15:53:35;100312.19;;;-20.48;98.36
61484;BME280;47349;55.640;37.692;2024-01-07T15:56:06;100335.97;;;-20.48;97.44
61484;BME280;47349;55.640;37.692;2024-01-07T15:58:38;100318.13;;;-20.48;98.77
61484;BME280;47349;55.640;37.692;2024-01-07T16:01:06;100328.50;;;-20.37;98.36
61484;BME280;47349;55.640;37.692;2024-01-07T16:03:40;100312.28;;;-20.41;96.92
61484;BME280;47349;55.640;37.692;2024-01-07T16:06:12;100316.44;;;-20.47;96.47
61484;BME280;47349;55.640;37.692;2024-01-07T16:08:45;100328.41;;;-20.43;96.72
61484;BME280;47349;55.640;37.692;2024-01-07T16:11:13;100323.25;;;-20.45;96.05
61484;BME280;47349;55.640;37.692;2024-01-07T16:13:43;100345.25;;;-20.50;95.64
61484;BME280;47349;55.640;37.692;2024-01-07T16:16:14;100333.41;;;-20.49;94.73
61484;BME280;47349;55.640;37.692;2024-01-07T16:18:47;100343.63;;;-20.48;93.27
61484;BME280;47349;55.640;37.692;2024-01-07T16:21:14;100329.03;;;-20.55;93.98
61484;BME280;47349;55.640;37.692;2024-01-07T16:23:49;100336.47;;;-20.64;93.19
61484;BME280;47349;55.640;37.692;2024-01-07T16:26:21;100333.03;;;-20.66;93.48
61484;BME280;47349;55.640;37.692;2024-01-07T16:28:51;100339.81;;;-20.68;91.70
61484;BME280;47349;55.640;37.692;2024-01-07T16:31:21;100348.44;;;-20.60;92.32
61484;BME280;47349;55.640;37.692;2024-01-07T16:33:54;100355.22;;;-20.62;92.71
61484;BME280;47349;55.640;37.692;2024-01-07T16:36:32;100337.09;;;-20.74;93.69
61484;BME280;47349;55.640;37.692;2024-01-07T16:39:05;100329.47;;;-20.74;93.92
61484;BME280;47349;55.640;37.692;2024-01-07T16:41:33;100339.53;;;-20.81;93.11
61484;BME280;47349;55.640;37.692;2024-01-07T16:44:07;100334.44;;;-20.81;93.94
61484;BME280;47349;55.640;37.692;2024-01-07T16:46:36;100368.59;;;-20.72;94.84
61484;BME280;47349;55.640;37.692;2024-01-07T16:49:09;100362.53;;;-20.77;94.49
61484;BME280;47349;55.640;37.692;2024-01-07T16:51:58;100352.16;;;-20.85;95.17
61484;BME280;47349;55.640;37.692;2024-01-07T16:54:30;100347.88;;;-20.88;96.90
61484;BME280;47349;55.640;37.692;2024-01-07T16:57:04;100353.75;;;-20.90;96.11
61484;BME280;47349;55.640;37.692;2024-01-07T16:59:50;100376.78;;;-20.86;98.19
61484;BME280;47349;55.640;37.692;2024-01-07T17:02:19;100369.00;;;-20.92;99.51
61484;BME280;47349;55.640;37.692;2024-01-07T17:04:49;100370.59;;;-20.95;99.22
61484;BME280;47349;55.640;37.692;2024-01-07T17:07:22;100347.59;;;-21.00;99.44
61484;BME280;47349;55.640;37.692;2024-01-07T17:09:55;100374.88;;;-20.94;99.76
61484;BME280;47349;55.640;37.692;2024-01-07T17:12:22;100386.53;;;-21.04;98.76
61484;BME280;47349;55.640;37.692;2024-01-07T17:15:02;100383.72;;;-21.15;99.65
61484;BME280;47349;55.640;37.692;2024-01-07T17:17:42;100386.41;;;-21.09;98.93
61484;BME280;47349;55.640;37.692;2024-01-07T17:20:10;100383.59;;;-21.21;98.77
61484;BME280;47349;55.640;37.692;2024-01-07T17:22:43;100397.19;;;-21.20;99.21
61484;BME280;47349;55.640;37.692;2024-01-07T17:25:15;100426.63;;;-21.32;98.44
61484;BME280;47349;55.640;37.692;2024-01-07T17:27:44;100400.97;;;-21.41;99.40
61484;BME280;47349;55.640;37.692;2024-01-07T17:30:12;100409.69;;;-21.30;99.87
61484;BME280;47349;55.640;37.692;2024-01-07T17:32:49;100414.47;;;-21.42;99.79
61484;BME280;47349;55.640;37.692;2024-01-07T17:35:22;100389.94;;;-21.40;99.72
61484;BME280;47349;55.640;37.692;2024-01-07T17:38:00;100395.25;;;-21.29;100.00
61484;BME280;47349;55.640;37.692;2024-01-07T17:40:28;100409.00;;;-21.22;100.00
61484;BME280;47349;55.640;37.692;2024-01-07T17:42:55;100428.56;;;-21.21;99.33
61484;BME280;47349;55.640;37.692;2024-01-07T17:45:31;100437.91;;;-21.20;99.93
61484;BME280;47349;55.640;37.692;2024-01-07T17:48:08;100420.91;;;-21.21;99.88
61484;BME280;47349;55.640;37.692;2024-01-07T17:50:36;100434.50;;;-21.21;99.29
61484;BME280;47349;55.640;37.692;2024-01-07T17:53:06;100435.38;;;-21.19;99.15
61484;BME280;47349;55.640;37.692;2024-01-07T17:55:37;100410.66;;;-21.24;98.50
61484;BME280;47349;55.640;37.692;2024-01-07T17:58:07;100406.19;;;-21.35;98.52
61484;BME280;47349;55.640;37.692;2024-01-07T18:00:48;100428.16;;;-21.38;99.23